createdAt,value
2018-10-01T00:05:09.570Z,22
2018-10-01T00:15:08.789Z,21.9
2018-10-01T00:25:08.008Z,21.9
2018-10-01T00:35:07.233Z,21.9
2018-10-01T00:45:06.446Z,21.9
2018-10-01T00:55:05.669Z,21.9
2018-10-01T01:05:04.889Z,21.9
2018-10-01T01:15:04.105Z,21.9
2018-10-01T01:25:03.334Z,21.9
2018-10-01T01:35:02.549Z,21.9
2018-10-01T01:45:01.764Z,21.9
2018-10-01T01:55:00.988Z,21.9
2018-10-01T02:05:00.208Z,21.9
2018-10-01T02:14:59.425Z,21.9
2018-10-01T02:24:58.647Z,21.9
2018-10-01T02:34:57.864Z,21.9
2018-10-01T02:44:57.082Z,21.9
2018-10-01T02:54:56.302Z,21.9
2018-10-01T03:04:55.523Z,22
2018-10-01T03:14:54.746Z,22.1
2018-10-01T03:24:53.966Z,22.1
2018-10-01T03:34:53.191Z,22.1
2018-10-01T03:44:52.405Z,22.1
2018-10-01T03:54:51.625Z,22.1
2018-10-01T04:04:50.846Z,22.1
2018-10-01T04:14:50.057Z,22.2
2018-10-01T04:24:49.285Z,22.2
2018-10-01T04:34:48.500Z,22.2
2018-10-01T04:44:47.718Z,22.1
2018-10-01T04:54:46.942Z,22.1
2018-10-01T05:04:46.153Z,22.1
2018-10-01T05:14:45.435Z,22
2018-10-01T05:24:44.592Z,22
2018-10-01T05:34:43.818Z,21.9
2018-10-01T05:44:43.036Z,21.9
2018-10-01T05:54:42.259Z,21.9
2018-10-01T06:04:41.488Z,21.9
2018-10-01T06:14:40.696Z,21.9
2018-10-01T06:24:39.968Z,21.9
2018-10-01T06:34:39.140Z,21.9
2018-10-01T06:44:38.354Z,22
2018-10-01T06:54:37.574Z,22.1
2018-10-01T07:04:36.794Z,22.1
2018-10-01T07:14:36.014Z,22.1
2018-10-01T07:24:35.231Z,22.1
2018-10-01T07:34:34.458Z,22.2
2018-10-01T07:44:33.668Z,22.3
2018-10-01T07:54:32.892Z,22.3
2018-10-01T08:04:32.112Z,22.4
2018-10-01T08:14:31.374Z,22.5
2018-10-01T08:24:30.548Z,22.6
2018-10-01T08:34:29.768Z,22.9
2018-10-01T08:44:29.050Z,23.1
2018-10-01T08:54:28.209Z,23.3
2018-10-01T09:04:27.428Z,23.4
2018-10-01T09:14:26.684Z,23.4
2018-10-01T09:24:25.881Z,23.4
2018-10-01T09:34:25.093Z,23.5
2018-10-01T09:44:24.329Z,23.4
2018-10-01T09:54:23.531Z,23.4
2018-10-01T10:04:22.794Z,23.4
2018-10-01T10:14:22.001Z,23.1
2018-10-01T10:24:21.185Z,23
2018-10-01T10:34:20.416Z,23.1
2018-10-01T10:44:19.665Z,23.2
2018-10-01T10:54:18.849Z,23.3
2018-10-01T11:04:18.070Z,23.4
2018-10-01T11:14:17.626Z,23.4
2018-10-01T11:24:16.503Z,23.5
2018-10-01T11:34:15.740Z,23.5
2018-10-01T11:44:14.945Z,23.5
2018-10-01T11:54:14.212Z,23.5
2018-10-01T12:04:13.609Z,23.5
2018-10-01T12:14:12.606Z,23.5
2018-10-01T12:24:11.828Z,23.5
2018-10-01T12:34:11.045Z,23.5
2018-10-01T12:44:10.267Z,23.4
2018-10-01T12:54:09.483Z,23.4
2018-10-01T13:04:08.707Z,23.4
2018-10-01T13:14:07.922Z,23.4
2018-10-01T13:24:07.249Z,23.4
2018-10-01T13:34:06.361Z,23.4
2018-10-01T13:44:05.587Z,23.3
2018-10-01T13:54:04.857Z,23.3
2018-10-01T14:04:04.027Z,23.2
2018-10-01T14:14:03.312Z,23.1
2018-10-01T14:24:02.469Z,23.1
2018-10-01T14:34:01.682Z,23
2018-10-01T14:44:00.904Z,22.9
2018-10-01T14:54:00.125Z,22.9
2018-10-01T15:03:59.346Z,22.8
2018-10-01T15:13:58.565Z,22.8
2018-10-01T15:23:57.841Z,22.7
2018-10-01T15:33:57.004Z,22.7
2018-10-01T15:43:56.224Z,22.6
2018-10-01T15:53:55.443Z,22.6
2018-10-01T16:03:54.666Z,22.5
2018-10-01T16:13:53.877Z,22.4
2018-10-01T16:23:53.102Z,22.4
2018-10-01T16:33:52.324Z,22.4
2018-10-01T16:43:51.543Z,22.4
2018-10-01T16:53:50.758Z,22.4
2018-10-01T17:03:49.983Z,22.4
2018-10-01T17:13:49.205Z,22.4
2018-10-01T17:23:48.435Z,22.5
2018-10-01T17:33:47.649Z,23.1
2018-10-01T17:43:46.863Z,23.6
2018-10-01T17:53:46.087Z,24.2
2018-10-01T18:03:45.305Z,24.4
2018-10-01T18:13:44.525Z,24.3
2018-10-01T18:23:43.761Z,24.1
2018-10-01T18:33:42.969Z,24.2
2018-10-01T18:43:42.284Z,24.2
2018-10-01T18:53:41.467Z,24.1
2018-10-01T19:03:40.634Z,24
2018-10-01T19:13:39.856Z,23.9
2018-10-01T19:23:39.072Z,24
2018-10-01T19:33:38.298Z,24.1
2018-10-01T19:43:37.520Z,24.2
2018-10-01T19:53:36.756Z,24.1
2018-10-01T20:03:35.957Z,24
2018-10-01T20:13:35.185Z,24.3
2018-10-01T20:23:34.398Z,24.2
2018-10-01T20:33:33.623Z,23.8
2018-10-01T20:43:32.852Z,23.8
2018-10-01T20:53:32.294Z,23.9
2018-10-01T21:03:31.284Z,23.9
2018-10-01T21:13:30.504Z,23.9
2018-10-01T21:23:29.724Z,23.8
2018-10-01T21:33:28.947Z,23.7
2018-10-01T21:43:28.164Z,23.6
2018-10-01T21:53:27.388Z,23.6
2018-10-01T22:03:26.605Z,23.7
2018-10-01T22:13:25.821Z,23.6
2018-10-01T22:23:25.042Z,23.6
2018-10-01T22:33:24.264Z,23.5
2018-10-01T22:43:23.481Z,23.5
2018-10-01T22:53:22.701Z,23.6
2018-10-01T23:03:21.925Z,23.6
2018-10-01T23:13:21.140Z,23.5
2018-10-01T23:23:20.360Z,23.5
2018-10-01T23:33:19.580Z,23.4
2018-10-01T23:43:18.806Z,23.4
2018-10-01T23:53:18.019Z,23.3
